createdAt,value
2022-12-31T00:01:51.256Z,79.73
2022-12-31T00:04:19.332Z,79.82
2022-12-31T00:06:47.259Z,79.08
2022-12-31T00:09:15.166Z,80.04
2022-12-31T00:11:43.104Z,79.66
2022-12-31T00:14:12.325Z,78.27
2022-12-31T00:16:42.471Z,78.94
2022-12-31T00:19:12.973Z,79.03
2022-12-31T00:21:41.406Z,78.37
2022-12-31T00:24:09.781Z,79.37
2022-12-31T00:26:37.700Z,79.56
2022-12-31T00:29:06.535Z,79.57
2022-12-31T00:31:38.881Z,78.33
2022-12-31T00:34:07.620Z,78.34
2022-12-31T00:36:37.273Z,77.14
2022-12-31T00:39:06.851Z,77.56
2022-12-31T00:41:35.075Z,77.95
2022-12-31T00:44:03.143Z,78.23
2022-12-31T00:46:31.844Z,79.65
2022-12-31T00:49:01.141Z,79.74
2022-12-31T00:51:29.212Z,79.48
2022-12-31T00:53:58.341Z,78.67
2022-12-31T00:56:30.280Z,78.70
2022-12-31T00:58:59.155Z,78.80
2022-12-31T01:01:29.394Z,78.60
2022-12-31T01:04:00.118Z,78.94
2022-12-31T01:06:29.537Z,79.42
2022-12-31T01:08:57.436Z,79.78
2022-12-31T01:11:29.224Z,79.62
2022-12-31T01:13:59.682Z,79.74
2022-12-31T01:16:29.265Z,79.70
2022-12-31T01:18:59.509Z,79.95
2022-12-31T01:21:29.174Z,78.67
2022-12-31T01:23:57.066Z,78.82
2022-12-31T01:26:24.964Z,78.76
2022-12-31T01:28:53.135Z,78.81
2022-12-31T01:31:22.589Z,78.44
2022-12-31T01:33:51.784Z,78.58
2022-12-31T01:36:25.672Z,78.79
2022-12-31T01:38:56.338Z,79.08
2022-12-31T01:41:27.667Z,78.90
2022-12-31T01:43:58.656Z,79.42
2022-12-31T01:46:32.251Z,79.01
2022-12-31T01:49:02.864Z,79.09
2022-12-31T01:51:34.379Z,79.14
2022-12-31T01:54:06.955Z,79.30
2022-12-31T01:56:36.089Z,79.54
2022-12-31T01:59:07.578Z,80.23
2022-12-31T02:01:38.897Z,78.56
2022-12-31T02:04:10.681Z,78.40
2022-12-31T02:06:42.928Z,79.25
2022-12-31T02:09:13.148Z,79.40
2022-12-31T02:11:41.306Z,78.94
2022-12-31T02:14:13.021Z,78.72
2022-12-31T02:16:50.052Z,79.36
2022-12-31T02:19:45.470Z,79.40
2022-12-31T02:22:24.648Z,79.07
2022-12-31T02:25:10.270Z,79.72
2022-12-31T02:27:52.217Z,79.51
2022-12-31T02:30:23.918Z,79.21
2022-12-31T02:33:00.833Z,79.50
2022-12-31T02:35:34.695Z,79.17
2022-12-31T02:38:08.786Z,78.76
2022-12-31T02:40:39.248Z,79.33
2022-12-31T02:43:07.303Z,78.77
2022-12-31T02:45:39.732Z,78.96
2022-12-31T02:48:22.690Z,78.81
2022-12-31T02:51:01.223Z,79.97
2022-12-31T02:54:03.477Z,78.63
2022-12-31T02:56:42.994Z,78.28
2022-12-31T02:59:34.989Z,79.03
2022-12-31T03:02:16.017Z,79.30
2022-12-31T03:04:46.855Z,79.13
2022-12-31T03:07:19.676Z,78.82
2022-12-31T03:09:47.751Z,78.20
2022-12-31T03:12:34.261Z,77.88
2022-12-31T03:15:06.608Z,77.60
2022-12-31T03:17:35.961Z,78.13
2022-12-31T03:20:21.975Z,78.25
2022-12-31T03:22:49.902Z,77.85
2022-12-31T03:25:34.138Z,77.96
2022-12-31T03:28:03.530Z,77.80
2022-12-31T03:30:32.937Z,78.04
2022-12-31T03:33:03.005Z,78.05
2022-12-31T03:35:33.776Z,79.24
2022-12-31T03:38:02.443Z,78.50
2022-12-31T03:40:31.858Z,79.10
2022-12-31T03:42:59.726Z,77.88
2022-12-31T03:45:27.842Z,78.56
2022-12-31T03:47:55.797Z,78.70
2022-12-31T03:50:25.024Z,78.77
2022-12-31T03:52:53.043Z,78.99
2022-12-31T03:55:20.929Z,79.94
2022-12-31T03:57:48.875Z,80.86
2022-12-31T04:00:19.159Z,79.07
2022-12-31T04:02:47.464Z,80.89
2022-12-31T04:05:16.782Z,80.23
2022-12-31T04:07:46.243Z,79.97
2022-12-31T04:10:16.754Z,80.18
2022-12-31T04:12:44.794Z,79.13
2022-12-31T04:15:17.160Z,79.13
2022-12-31T04:17:45.102Z,79.70
2022-12-31T04:20:13.472Z,79.15
2022-12-31T04:22:41.544Z,79.64
2022-12-31T04:25:11.894Z,79.15
2022-12-31T04:27:40.450Z,78.70
2022-12-31T04:30:12.206Z,79.51
2022-12-31T04:32:40.209Z,78.57
2022-12-31T04:35:09.723Z,78.40
2022-12-31T04:37:37.663Z,77.67
2022-12-31T04:40:07.098Z,79.65
2022-12-31T04:42:37.039Z,78.71
2022-12-31T04:45:06.068Z,79.47
2022-12-31T04:47:34.066Z,79.39
2022-12-31T04:50:01.942Z,79.78
2022-12-31T04:52:29.823Z,79.60
2022-12-31T04:54:57.689Z,79.99
2022-12-31T04:57:25.631Z,79.48
2022-12-31T04:59:54.867Z,79.39
2022-12-31T05:02:22.911Z,79.02
2022-12-31T05:04:51.012Z,79.81
2022-12-31T05:07:18.963Z,79.13
2022-12-31T05:09:46.854Z,79.75
2022-12-31T05:12:14.732Z,80.57
2022-12-31T05:14:42.633Z,80.18
2022-12-31T05:17:11.932Z,79.40
2022-12-31T05:19:39.821Z,80.33
2022-12-31T05:22:25.000Z,80.05
2022-12-31T05:24:53.140Z,80.68
2022-12-31T05:27:21.127Z,80.62
2022-12-31T05:29:48.976Z,80.54
2022-12-31T05:32:18.442Z,82.30
2022-12-31T05:34:46.382Z,83.94
2022-12-31T05:37:14.243Z,85.98
2022-12-31T05:39:42.120Z,88.00
2022-12-31T05:42:10.026Z,89.51
2022-12-31T05:44:37.878Z,92.61
2022-12-31T05:47:05.963Z,92.10
2022-12-31T05:49:35.198Z,92.01
2022-12-31T05:52:03.097Z,90.39
2022-12-31T05:54:30.988Z,90.58
2022-12-31T05:56:58.838Z,90.34
2022-12-31T05:59:26.709Z,90.90
2022-12-31T06:01:54.590Z,91.44
2022-12-31T06:04:22.529Z,92.05
2022-12-31T06:06:51.822Z,91.06
2022-12-31T06:09:20.446Z,89.99
2022-12-31T06:11:48.735Z,89.60
2022-12-31T06:14:17.225Z,88.54
2022-12-31T06:16:45.116Z,89.16
2022-12-31T06:19:12.985Z,89.95
2022-12-31T06:21:40.875Z,89.93
2022-12-31T06:24:10.394Z,89.20
2022-12-31T06:26:38.714Z,88.50
2022-12-31T06:29:06.696Z,88.17
2022-12-31T06:31:34.706Z,88.46
2022-12-31T06:34:02.590Z,88.19
2022-12-31T06:36:30.697Z,87.61
2022-12-31T06:39:00.435Z,89.41
2022-12-31T06:41:29.704Z,89.69
2022-12-31T06:43:57.639Z,88.82
2022-12-31T06:46:27.140Z,88.86
2022-12-31T06:48:55.001Z,87.72
2022-12-31T06:51:23.741Z,87.76
2022-12-31T06:53:52.537Z,88.40
2022-12-31T06:56:25.250Z,88.30
2022-12-31T06:58:57.900Z,87.89
2022-12-31T07:01:38.135Z,88.17
2022-12-31T07:04:33.119Z,87.71
2022-12-31T07:07:08.324Z,87.01
2022-12-31T07:09:45.919Z,87.61
2022-12-31T07:12:37.352Z,86.77
2022-12-31T07:15:14.384Z,86.20
2022-12-31T07:17:50.657Z,85.45
2022-12-31T07:20:19.792Z,84.88
2022-12-31T07:22:48.335Z,85.05
2022-12-31T07:25:17.980Z,84.86
2022-12-31T07:28:09.667Z,83.96
2022-12-31T07:30:47.539Z,84.59
2022-12-31T07:33:36.773Z,83.18
2022-12-31T07:36:16.279Z,81.98
2022-12-31T07:38:57.691Z,82.83
2022-12-31T07:41:42.117Z,81.69
2022-12-31T07:44:26.259Z,81.19
2022-12-31T07:46:58.244Z,80.72
2022-12-31T07:49:28.395Z,80.52
2022-12-31T07:51:57.031Z,80.17
2022-12-31T07:54:24.996Z,79.85
2022-12-31T07:56:53.138Z,80.05
2022-12-31T07:59:37.866Z,79.97
2022-12-31T08:02:15.169Z,79.65
2022-12-31T08:04:55.387Z,79.76
2022-12-31T08:07:35.329Z,78.97
2022-12-31T08:10:17.290Z,78.41
2022-12-31T08:12:48.171Z,79.17
2022-12-31T08:15:17.975Z,78.44
2022-12-31T08:17:47.743Z,77.77
2022-12-31T08:20:16.907Z,78.37
2022-12-31T08:23:23.279Z,78.54
2022-12-31T08:26:06.261Z,76.97
2022-12-31T08:28:52.080Z,77.30
2022-12-31T08:31:23.888Z,76.74
2022-12-31T08:34:05.362Z,77.70
2022-12-31T08:36:45.554Z,77.77
2022-12-31T08:39:22.998Z,76.97
2022-12-31T08:41:54.558Z,76.54
2022-12-31T08:44:30.927Z,75.49
2022-12-31T08:47:07.591Z,76.14
2022-12-31T08:49:37.285Z,76.79
2022-12-31T08:52:05.744Z,75.50
2022-12-31T08:54:34.172Z,75.39
2022-12-31T08:57:07.958Z,75.47
2022-12-31T08:59:45.735Z,74.80
2022-12-31T09:02:48.197Z,75.67
2022-12-31T09:05:25.396Z,75.43
2022-12-31T09:08:10.238Z,74.27
2022-12-31T09:10:45.378Z,73.80
2022-12-31T09:13:22.565Z,74.37
2022-12-31T09:15:59.491Z,73.88
2022-12-31T09:18:32.933Z,74.04
2022-12-31T09:21:03.073Z,73.88
2022-12-31T09:23:31.520Z,74.28
2022-12-31T09:26:06.131Z,73.84
2022-12-31T09:28:43.259Z,72.81
2022-12-31T09:31:17.584Z,72.32
2022-12-31T09:33:52.795Z,72.58
2022-12-31T09:36:31.348Z,72.16
2022-12-31T09:39:08.882Z,71.57
2022-12-31T09:42:09.607Z,70.90
2022-12-31T09:45:08.067Z,70.20
2022-12-31T09:48:02.693Z,70.23
2022-12-31T09:50:45.306Z,70.56
2022-12-31T09:53:42.869Z,68.95
2022-12-31T09:56:21.906Z,67.90
2022-12-31T09:59:02.541Z,67.98
2022-12-31T10:01:43.739Z,67.52
2022-12-31T10:04:41.386Z,67.44
2022-12-31T10:07:21.780Z,68.05
2022-12-31T10:10:02.189Z,68.87
2022-12-31T10:12:46.873Z,67.70
2022-12-31T10:15:41.406Z,68.86
2022-12-31T10:18:24.618Z,69.19
2022-12-31T10:21:05.025Z,68.50
2022-12-31T10:23:55.209Z,68.59
2022-12-31T10:26:33.256Z,68.66
2022-12-31T10:29:16.087Z,67.63
2022-12-31T10:31:52.029Z,69.08
2022-12-31T10:34:27.440Z,68.59
2022-12-31T10:36:59.105Z,68.08
2022-12-31T10:39:39.843Z,67.47
2022-12-31T10:42:32.435Z,67.83
2022-12-31T10:45:32.139Z,68.47
2022-12-31T10:48:47.700Z,68.12
2022-12-31T10:51:42.828Z,68.39
2022-12-31T10:54:55.696Z,70.99
2022-12-31T10:57:43.477Z,70.59
2022-12-31T11:00:21.111Z,69.49
2022-12-31T11:03:29.228Z,69.54
2022-12-31T11:06:34.898Z,71.45
2022-12-31T11:09:48.496Z,71.59
2022-12-31T11:12:43.701Z,71.26
2022-12-31T11:15:38.549Z,71.18
2022-12-31T11:18:18.207Z,70.97
2022-12-31T11:21:04.481Z,70.87
2022-12-31T11:23:42.364Z,69.59
2022-12-31T11:26:21.723Z,70.07
2022-12-31T11:29:08.749Z,69.75
2022-12-31T11:32:08.981Z,70.43
2022-12-31T11:34:59.881Z,69.35
2022-12-31T11:37:38.479Z,68.77
2022-12-31T11:40:22.100Z,68.81
2022-12-31T11:42:56.387Z,69.43
2022-12-31T11:45:45.645Z,69.26
2022-12-31T11:48:31.982Z,69.12
2022-12-31T11:51:16.520Z,68.35
2022-12-31T11:54:05.220Z,68.28
2022-12-31T11:56:36.619Z,67.40
2022-12-31T11:59:15.697Z,67.81
2022-12-31T12:01:54.658Z,66.70
2022-12-31T12:04:22.717Z,66.66
2022-12-31T12:06:53.401Z,65.67
2022-12-31T12:09:28.721Z,65.85
2022-12-31T12:12:00.821Z,64.62
2022-12-31T12:14:33.313Z,65.08
2022-12-31T12:17:05.117Z,65.00
2022-12-31T12:19:34.904Z,64.21
2022-12-31T12:22:13.252Z,64.52
2022-12-31T12:24:41.615Z,64.50
2022-12-31T12:27:22.966Z,64.33
2022-12-31T12:29:51.107Z,64.61
2022-12-31T12:32:21.057Z,64.82
2022-12-31T12:34:50.237Z,65.21
2022-12-31T12:37:29.084Z,64.15
2022-12-31T12:39:58.535Z,63.55
2022-12-31T12:42:26.476Z,64.19
2022-12-31T12:45:05.713Z,64.08
2022-12-31T12:47:34.607Z,63.65
2022-12-31T12:50:02.537Z,63.91
2022-12-31T12:52:59.039Z,63.61
2022-12-31T12:55:41.018Z,63.75
2022-12-31T12:58:19.656Z,63.66
2022-12-31T13:00:54.809Z,64.27
2022-12-31T13:04:33.627Z,64.00
2022-12-31T13:07:09.277Z,63.78
2022-12-31T13:09:56.864Z,63.15
2022-12-31T13:12:48.879Z,63.35
2022-12-31T13:15:23.325Z,63.43
2022-12-31T13:18:02.378Z,63.49
2022-12-31T13:20:40.152Z,63.15
2022-12-31T13:23:17.346Z,63.21
2022-12-31T13:25:59.810Z,63.55
2022-12-31T13:28:28.969Z,63.71
2022-12-31T13:31:06.487Z,63.64
2022-12-31T13:33:40.207Z,64.43
2022-12-31T13:36:09.913Z,63.70
2022-12-31T13:38:41.661Z,63.57
2022-12-31T13:41:16.040Z,63.50
2022-12-31T13:43:51.286Z,63.58
2022-12-31T13:46:26.950Z,63.08
2022-12-31T13:48:58.244Z,62.88
2022-12-31T13:51:44.251Z,62.88
2022-12-31T13:54:25.562Z,62.61
2022-12-31T13:56:56.883Z,62.73
2022-12-31T13:59:30.619Z,62.40
2022-12-31T14:02:04.607Z,62.62
2022-12-31T14:04:37.383Z,62.20
2022-12-31T14:07:10.991Z,62.73
2022-12-31T14:09:39.104Z,62.43
2022-12-31T14:12:29.038Z,62.40
2022-12-31T14:15:07.468Z,62.79
2022-12-31T14:17:43.489Z,62.65
2022-12-31T14:20:24.132Z,63.31
2022-12-31T14:23:00.128Z,62.81
2022-12-31T14:25:35.163Z,61.96
2022-12-31T14:28:10.746Z,62.11
2022-12-31T14:30:42.227Z,62.11
2022-12-31T14:33:19.867Z,62.29
2022-12-31T14:36:04.005Z,62.38
2022-12-31T14:38:48.611Z,62.51
2022-12-31T14:41:28.960Z,61.88
2022-12-31T14:44:11.962Z,62.04
2022-12-31T14:46:52.886Z,62.26
2022-12-31T14:49:40.803Z,62.14
2022-12-31T14:52:10.477Z,62.37
2022-12-31T14:54:39.338Z,62.38
2022-12-31T14:57:25.564Z,62.27
2022-12-31T14:59:57.634Z,62.53
2022-12-31T15:02:31.857Z,62.64
2022-12-31T15:05:17.220Z,62.48
2022-12-31T15:08:02.863Z,62.60
2022-12-31T15:10:41.781Z,62.71
2022-12-31T15:13:26.038Z,62.35
2022-12-31T15:16:09.859Z,62.92
2022-12-31T15:18:54.815Z,62.96
2022-12-31T15:21:47.081Z,62.68
2022-12-31T15:24:20.623Z,62.92
2022-12-31T15:26:52.288Z,63.65
2022-12-31T15:29:29.111Z,63.35
2022-12-31T15:32:03.934Z,62.73
2022-12-31T15:34:34.880Z,62.84
2022-12-31T15:37:05.341Z,63.43
2022-12-31T15:39:45.785Z,64.05
2022-12-31T15:42:45.759Z,63.12
2022-12-31T15:45:22.434Z,63.52
2022-12-31T15:47:56.076Z,64.03
2022-12-31T15:50:28.797Z,63.03
2022-12-31T15:53:02.371Z,63.47
2022-12-31T15:55:38.593Z,62.96
2022-12-31T15:58:12.909Z,62.93
2022-12-31T16:00:57.208Z,62.90
2022-12-31T16:03:30.245Z,63.23
2022-12-31T16:06:02.102Z,62.95
2022-12-31T16:08:32.953Z,63.25
2022-12-31T16:11:01.642Z,63.73
2022-12-31T16:13:31.224Z,63.42
2022-12-31T16:16:03.175Z,63.43
2022-12-31T16:18:40.173Z,62.71
2022-12-31T16:21:23.521Z,63.42
2022-12-31T16:23:52.350Z,63.14
2022-12-31T16:26:20.394Z,62.82
2022-12-31T16:28:49.863Z,63.42
2022-12-31T16:31:19.731Z,63.24
2022-12-31T16:33:49.380Z,63.70
2022-12-31T16:36:21.364Z,63.57
2022-12-31T16:38:49.425Z,63.07
2022-12-31T16:41:19.379Z,63.87
2022-12-31T16:43:49.775Z,64.04
2022-12-31T16:46:21.645Z,62.99
2022-12-31T16:48:54.650Z,63.19
2022-12-31T16:51:25.977Z,63.68
2022-12-31T16:53:54.358Z,62.97
2022-12-31T16:56:27.334Z,63.14
2022-12-31T16:59:01.722Z,63.40
2022-12-31T17:01:33.549Z,63.07
2022-12-31T17:04:05.723Z,62.20
2022-12-31T17:06:33.880Z,62.71
2022-12-31T17:09:18.620Z,63.33
2022-12-31T17:11:52.733Z,63.38
2022-12-31T17:14:23.784Z,63.54
2022-12-31T17:17:03.242Z,63.22
2022-12-31T17:19:42.847Z,62.18
2022-12-31T17:22:17.566Z,62.18
2022-12-31T17:24:49.428Z,62.39
2022-12-31T17:27:17.716Z,61.75
2022-12-31T17:29:45.583Z,61.71
2022-12-31T17:32:30.036Z,61.71
2022-12-31T17:34:59.331Z,61.65
2022-12-31T17:37:28.933Z,61.27
2022-12-31T17:40:24.510Z,60.68
2022-12-31T17:42:49.471Z,61.35
2022-12-31T17:45:22.025Z,61.16
2022-12-31T17:47:53.728Z,60.80
2022-12-31T17:50:25.483Z,61.02
2022-12-31T17:52:56.940Z,60.99
2022-12-31T17:55:24.940Z,60.66
2022-12-31T17:57:55.013Z,60.80
2022-12-31T18:00:25.172Z,61.20
2022-12-31T18:02:53.387Z,61.63
2022-12-31T18:05:25.264Z,61.03
2022-12-31T18:07:54.161Z,61.29
2022-12-31T18:10:24.948Z,61.65
2022-12-31T18:12:53.139Z,61.16
2022-12-31T18:15:22.977Z,60.99
2022-12-31T18:17:51.793Z,61.61
2022-12-31T18:20:20.064Z,60.79
2022-12-31T18:22:49.700Z,61.52
2022-12-31T18:25:20.504Z,61.43
2022-12-31T18:27:48.983Z,61.57
2022-12-31T18:30:17.727Z,61.51
2022-12-31T18:32:46.432Z,61.38
2022-12-31T18:35:48.648Z,61.39
2022-12-31T18:38:13.203Z,61.26
2022-12-31T18:40:44.287Z,61.81
2022-12-31T18:43:16.563Z,61.76
2022-12-31T18:45:44.926Z,61.88
2022-12-31T18:48:13.498Z,61.85
2022-12-31T18:50:42.059Z,61.90
2022-12-31T18:53:16.520Z,61.55
2022-12-31T18:55:48.602Z,61.65
2022-12-31T18:58:16.789Z,61.79
2022-12-31T19:00:45.767Z,61.65
2022-12-31T19:03:18.181Z,61.32
2022-12-31T19:05:49.584Z,62.01
2022-12-31T19:08:19.097Z,62.43
2022-12-31T19:10:47.201Z,62.83
2022-12-31T19:13:16.624Z,62.64
2022-12-31T19:15:47.527Z,62.41
2022-12-31T19:18:15.427Z,62.23
2022-12-31T19:20:43.314Z,63.26
2022-12-31T19:23:16.396Z,63.51
2022-12-31T19:25:47.158Z,63.08
2022-12-31T19:28:18.034Z,63.34
2022-12-31T19:30:46.040Z,63.72
2022-12-31T19:33:14.026Z,63.17
2022-12-31T19:35:42.556Z,63.20
2022-12-31T19:38:19.123Z,63.49
2022-12-31T19:40:49.248Z,63.27
2022-12-31T19:43:19.283Z,63.70
2022-12-31T19:45:47.939Z,63.40
2022-12-31T19:48:18.735Z,63.79
2022-12-31T19:50:48.169Z,63.87
2022-12-31T19:53:18.850Z,63.26
2022-12-31T19:55:48.955Z,63.01
2022-12-31T19:58:19.367Z,63.07
2022-12-31T20:00:54.590Z,62.75
2022-12-31T20:03:25.181Z,62.81
2022-12-31T20:06:02.305Z,62.25
2022-12-31T20:08:30.156Z,62.61
2022-12-31T20:11:00.094Z,62.68
2022-12-31T20:13:28.115Z,61.70
2022-12-31T20:15:56.084Z,62.32
2022-12-31T20:18:23.925Z,62.14
2022-12-31T20:20:55.751Z,62.03
2022-12-31T20:23:24.057Z,62.56
2022-12-31T20:25:59.851Z,61.65
2022-12-31T20:28:28.021Z,61.58
2022-12-31T20:30:56.029Z,60.52
2022-12-31T20:33:24.300Z,60.56
2022-12-31T20:35:52.401Z,60.27
2022-12-31T20:38:20.398Z,60.58
2022-12-31T20:40:48.258Z,60.13
2022-12-31T20:43:17.510Z,59.50
2022-12-31T20:45:45.443Z,59.69
2022-12-31T20:48:13.454Z,59.35
2022-12-31T20:50:41.306Z,59.09
2022-12-31T20:53:09.152Z,59.04
2022-12-31T20:55:38.771Z,58.77
2022-12-31T20:58:06.634Z,58.72
2022-12-31T21:00:35.871Z,58.51
2022-12-31T21:03:14.446Z,59.28
2022-12-31T21:05:53.095Z,57.99
2022-12-31T21:08:22.087Z,58.26
2022-12-31T21:10:50.965Z,57.74
2022-12-31T21:13:21.620Z,57.58
2022-12-31T21:15:50.904Z,58.05
2022-12-31T21:18:19.063Z,57.91
2022-12-31T21:20:48.033Z,58.18
2022-12-31T21:23:16.327Z,57.88
2022-12-31T21:25:45.434Z,57.32
2022-12-31T21:28:14.061Z,57.32
2022-12-31T21:30:42.969Z,57.21
2022-12-31T21:33:12.258Z,56.93
2022-12-31T21:35:44.547Z,56.67
2022-12-31T21:38:16.480Z,57.44
2022-12-31T21:40:45.013Z,57.63
2022-12-31T21:43:13.264Z,57.24
2022-12-31T21:45:41.395Z,56.88
2022-12-31T21:48:23.459Z,57.21
2022-12-31T21:50:53.090Z,56.85
2022-12-31T21:53:26.355Z,56.44
2022-12-31T21:56:09.832Z,56.24
2022-12-31T21:58:38.316Z,56.03
2022-12-31T22:01:24.697Z,56.44
2022-12-31T22:03:54.023Z,56.00
2022-12-31T22:06:23.693Z,56.64
2022-12-31T22:08:53.189Z,56.62
2022-12-31T22:11:23.803Z,56.41
2022-12-31T22:13:52.425Z,56.30
2022-12-31T22:16:21.512Z,56.13
2022-12-31T22:18:50.033Z,55.81
2022-12-31T22:21:20.866Z,56.64
2022-12-31T22:23:50.434Z,56.25
2022-12-31T22:26:19.737Z,56.49
2022-12-31T22:28:47.801Z,56.85
2022-12-31T22:31:17.887Z,56.07
2022-12-31T22:33:46.522Z,56.47
2022-12-31T22:36:16.653Z,55.61
2022-12-31T22:38:46.145Z,55.47
2022-12-31T22:41:16.080Z,55.32
2022-12-31T22:43:46.019Z,55.54
2022-12-31T22:46:15.896Z,55.24
2022-12-31T22:48:43.966Z,55.11
2022-12-31T22:51:16.542Z,55.20
2022-12-31T22:53:46.308Z,55.55
2022-12-31T22:56:16.150Z,55.80
2022-12-31T22:58:44.798Z,55.10
2022-12-31T23:01:18.274Z,55.33
2022-12-31T23:03:46.544Z,55.53
2022-12-31T23:06:15.198Z,55.62
2022-12-31T23:09:03.116Z,56.00
2022-12-31T23:11:36.017Z,54.97
2022-12-31T23:14:21.829Z,55.01
2022-12-31T23:17:31.589Z,55.33
2022-12-31T23:20:12.484Z,55.04
2022-12-31T23:22:57.851Z,55.44
2022-12-31T23:25:25.758Z,54.82
2022-12-31T23:27:55.016Z,55.24
2022-12-31T23:30:22.853Z,54.92
2022-12-31T23:32:50.748Z,54.63
2022-12-31T23:35:18.712Z,54.77
2022-12-31T23:37:46.654Z,54.85
2022-12-31T23:40:20.995Z,54.53
2022-12-31T23:42:49.364Z,54.47
2022-12-31T23:45:18.781Z,54.20
2022-12-31T23:47:46.712Z,54.32
2022-12-31T23:50:14.631Z,53.94
2022-12-31T23:52:42.522Z,54.20
2022-12-31T23:55:10.636Z,54.28
2022-12-31T23:57:38.526Z,54.24
